sensor_id;sensor_type;location;lat;lon;timestamp;P1;durP1;ratioP1;P2;durP2;ratioP2
40322;SDS011;26030;51.164;17.100;2023-06-22T00:02:55;7.40;;;6.10;;
40322;SDS011;26030;51.164;17.100;2023-06-22T00:08:02;6.50;;;5.90;;
40322;SDS011;26030;51.164;17.100;2023-06-22T00:13:08;7.70;;;6.50;;
40322;SDS011;26030;51.164;17.100;2023-06-22T00:18:13;7.00;;;5.90;;
40322;SDS011;26030;51.164;17.100;2023-06-22T00:23:17;7.20;;;6.50;;
40322;SDS011;26030;51.164;17.100;2023-06-22T00:28:21;7.20;;;6.60;;
40322;SDS011;26030;51.164;17.100;2023-06-22T00:33:26;7.70;;;7.10;;
40322;SDS011;26030;51.164;17.100;2023-06-22T00:38:32;7.50;;;6.90;;
40322;SDS011;26030;51.164;17.100;2023-06-22T00:43:37;7.30;;;6.70;;
40322;SDS011;26030;51.164;17.100;2023-06-22T00:48:41;7.40;;;6.70;;
40322;SDS011;26030;51.164;17.100;2023-06-22T00:53:47;6.80;;;6.20;;
40322;SDS011;26030;51.164;17.100;2023-06-22T00:58:53;7.10;;;6.50;;
40322;SDS011;26030;51.164;17.100;2023-06-22T01:03:57;6.20;;;5.60;;
40322;SDS011;26030;51.164;17.100;2023-06-22T01:09:09;6.90;;;6.20;;
40322;SDS011;26030;51.164;17.100;2023-06-22T01:14:28;6.70;;;5.90;;
40322;SDS011;26030;51.164;17.100;2023-06-22T01:24:55;6.40;;;5.80;;
40322;SDS011;26030;51.164;17.100;2023-06-22T01:30:01;6.40;;;5.80;;
40322;SDS011;26030;51.164;17.100;2023-06-22T01:35:10;6.70;;;6.00;;
40322;SDS011;26030;51.164;17.100;2023-06-22T01:40:16;6.00;;;5.60;;
40322;SDS011;26030;51.164;17.100;2023-06-22T01:45:21;5.90;;;5.30;;
40322;SDS011;26030;51.164;17.100;2023-06-22T01:50:26;6.30;;;5.80;;
40322;SDS011;26030;51.164;17.100;2023-06-22T01:55:32;6.10;;;5.70;;
40322;SDS011;26030;51.164;17.100;2023-06-22T02:00:38;6.00;;;5.50;;
40322;SDS011;26030;51.164;17.100;2023-06-22T02:05:56;6.00;;;5.20;;
40322;SDS011;26030;51.164;17.100;2023-06-22T02:11:02;7.70;;;7.00;;
40322;SDS011;26030;51.164;17.100;2023-06-22T02:16:07;5.70;;;5.30;;
40322;SDS011;26030;51.164;17.100;2023-06-22T02:21:12;6.90;;;5.70;;
40322;SDS011;26030;51.164;17.100;2023-06-22T02:26:18;7.10;;;6.40;;
40322;SDS011;26030;51.164;17.100;2023-06-22T02:31:22;6.20;;;5.70;;
40322;SDS011;26030;51.164;17.100;2023-06-22T02:36:29;6.00;;;5.60;;
40322;SDS011;26030;51.164;17.100;2023-06-22T02:41:36;5.70;;;5.30;;
40322;SDS011;26030;51.164;17.100;2023-06-22T02:46:40;6.20;;;5.80;;
40322;SDS011;26030;51.164;17.100;2023-06-22T02:51:46;7.70;;;7.00;;
40322;SDS011;26030;51.164;17.100;2023-06-22T02:56:51;5.90;;;5.50;;
40322;SDS011;26030;51.164;17.100;2023-06-22T03:01:56;6.80;;;6.20;;
40322;SDS011;26030;51.164;17.100;2023-06-22T03:07:04;6.90;;;6.00;;
40322;SDS011;26030;51.164;17.100;2023-06-22T03:12:10;6.10;;;5.50;;
40322;SDS011;26030;51.164;17.100;2023-06-22T03:17:27;6.00;;;5.50;;
40322;SDS011;26030;51.164;17.100;2023-06-22T03:22:32;6.20;;;5.70;;
40322;SDS011;26030;51.164;17.100;2023-06-22T03:27:37;6.60;;;6.00;;
40322;SDS011;26030;51.164;17.100;2023-06-22T03:32:43;6.80;;;6.10;;
40322;SDS011;26030;51.164;17.100;2023-06-22T03:37:47;8.90;;;6.60;;
40322;SDS011;26030;51.164;17.100;2023-06-22T03:42:51;6.70;;;6.10;;
40322;SDS011;26030;51.164;17.100;2023-06-22T03:47:56;6.50;;;6.10;;
40322;SDS011;26030;51.164;17.100;2023-06-22T03:53:00;6.50;;;6.00;;
40322;SDS011;26030;51.164;17.100;2023-06-22T03:58:04;7.20;;;6.60;;
40322;SDS011;26030;51.164;17.100;2023-06-22T04:03:09;7.60;;;6.60;;
40322;SDS011;26030;51.164;17.100;2023-06-22T04:08:14;7.00;;;6.50;;
40322;SDS011;26030;51.164;17.100;2023-06-22T04:13:18;6.60;;;6.10;;
40322;SDS011;26030;51.164;17.100;2023-06-22T04:18:23;6.80;;;6.20;;
40322;SDS011;26030;51.164;17.100;2023-06-22T04:23:27;6.80;;;6.10;;
40322;SDS011;26030;51.164;17.100;2023-06-22T04:28:32;5.80;;;5.40;;
40322;SDS011;26030;51.164;17.100;2023-06-22T04:33:39;6.60;;;6.20;;
40322;SDS011;26030;51.164;17.100;2023-06-22T04:38:44;6.40;;;6.00;;
40322;SDS011;26030;51.164;17.100;2023-06-22T04:43:48;6.70;;;6.10;;
40322;SDS011;26030;51.164;17.100;2023-06-22T04:48:57;5.70;;;5.20;;
40322;SDS011;26030;51.164;17.100;2023-06-22T04:54:01;6.10;;;5.70;;
40322;SDS011;26030;51.164;17.100;2023-06-22T04:59:06;6.70;;;6.00;;
40322;SDS011;26030;51.164;17.100;2023-06-22T05:04:11;7.20;;;6.70;;
40322;SDS011;26030;51.164;17.100;2023-06-22T05:09:17;7.90;;;7.10;;
40322;SDS011;26030;51.164;17.100;2023-06-22T05:14:21;6.60;;;6.00;;
40322;SDS011;26030;51.164;17.100;2023-06-22T05:19:25;6.70;;;6.20;;
40322;SDS011;26030;51.164;17.100;2023-06-22T05:24:35;6.20;;;5.60;;
40322;SDS011;26030;51.164;17.100;2023-06-22T05:29:39;6.00;;;5.50;;
40322;SDS011;26030;51.164;17.100;2023-06-22T05:34:43;5.70;;;5.30;;
40322;SDS011;26030;51.164;17.100;2023-06-22T05:39:48;6.30;;;5.90;;
40322;SDS011;26030;51.164;17.100;2023-06-22T05:44:53;6.70;;;5.90;;
40322;SDS011;26030;51.164;17.100;2023-06-22T05:49:57;6.00;;;5.60;;
40322;SDS011;26030;51.164;17.100;2023-06-22T05:55:02;6.10;;;5.30;;
40322;SDS011;26030;51.164;17.100;2023-06-22T06:00:07;6.20;;;5.80;;
40322;SDS011;26030;51.164;17.100;2023-06-22T06:05:15;8.50;;;5.70;;
40322;SDS011;26030;51.164;17.100;2023-06-22T06:10:19;7.20;;;6.00;;
40322;SDS011;26030;51.164;17.100;2023-06-22T06:15:23;6.50;;;5.20;;
40322;SDS011;26030;51.164;17.100;2023-06-22T06:20:29;5.90;;;5.30;;
40322;SDS011;26030;51.164;17.100;2023-06-22T06:25:33;7.30;;;5.50;;
40322;SDS011;26030;51.164;17.100;2023-06-22T06:30:38;6.50;;;5.80;;
40322;SDS011;26030;51.164;17.100;2023-06-22T06:35:42;5.70;;;5.30;;
40322;SDS011;26030;51.164;17.100;2023-06-22T06:40:46;8.70;;;5.50;;
40322;SDS011;26030;51.164;17.100;2023-06-22T06:45:52;11.80;;;6.10;;
40322;SDS011;26030;51.164;17.100;2023-06-22T06:50:56;6.80;;;5.90;;
40322;SDS011;26030;51.164;17.100;2023-06-22T06:56:00;9.60;;;6.10;;
40322;SDS011;26030;51.164;17.100;2023-06-22T07:01:05;10.00;;;6.50;;
40322;SDS011;26030;51.164;17.100;2023-06-22T07:06:09;15.20;;;6.00;;
40322;SDS011;26030;51.164;17.100;2023-06-22T07:11:13;11.20;;;5.50;;
40322;SDS011;26030;51.164;17.100;2023-06-22T07:16:17;7.10;;;6.40;;
40322;SDS011;26030;51.164;17.100;2023-06-22T07:21:22;6.50;;;5.70;;
40322;SDS011;26030;51.164;17.100;2023-06-22T07:26:26;7.00;;;6.40;;
40322;SDS011;26030;51.164;17.100;2023-06-22T07:31:32;6.90;;;6.20;;
40322;SDS011;26030;51.164;17.100;2023-06-22T07:36:36;6.10;;;5.60;;
40322;SDS011;26030;51.164;17.100;2023-06-22T07:41:44;6.80;;;6.10;;
40322;SDS011;26030;51.164;17.100;2023-06-22T07:46:48;8.50;;;6.00;;
40322;SDS011;26030;51.164;17.100;2023-06-22T07:51:52;6.50;;;5.60;;
40322;SDS011;26030;51.164;17.100;2023-06-22T07:56:56;5.60;;;5.30;;
40322;SDS011;26030;51.164;17.100;2023-06-22T08:02:01;6.00;;;5.40;;
40322;SDS011;26030;51.164;17.100;2023-06-22T08:07:07;6.00;;;5.60;;
40322;SDS011;26030;51.164;17.100;2023-06-22T08:12:11;6.60;;;6.20;;
40322;SDS011;26030;51.164;17.100;2023-06-22T08:17:16;5.80;;;5.40;;
40322;SDS011;26030;51.164;17.100;2023-06-22T08:22:21;6.20;;;5.70;;
40322;SDS011;26030;51.164;17.100;2023-06-22T08:27:25;6.10;;;5.60;;
40322;SDS011;26030;51.164;17.100;2023-06-22T08:32:31;6.50;;;5.90;;
40322;SDS011;26030;51.164;17.100;2023-06-22T08:37:37;6.60;;;6.10;;
40322;SDS011;26030;51.164;17.100;2023-06-22T08:42:43;6.40;;;5.80;;
40322;SDS011;26030;51.164;17.100;2023-06-22T08:47:47;5.80;;;5.40;;
40322;SDS011;26030;51.164;17.100;2023-06-22T08:52:51;6.50;;;6.00;;
40322;SDS011;26030;51.164;17.100;2023-06-22T08:57:55;6.60;;;6.00;;
40322;SDS011;26030;51.164;17.100;2023-06-22T09:02:59;6.00;;;5.60;;
40322;SDS011;26030;51.164;17.100;2023-06-22T09:08:04;6.30;;;5.80;;
40322;SDS011;26030;51.164;17.100;2023-06-22T09:13:08;5.80;;;5.40;;
40322;SDS011;26030;51.164;17.100;2023-06-22T09:18:13;5.70;;;5.20;;
40322;SDS011;26030;51.164;17.100;2023-06-22T09:23:18;6.10;;;5.40;;
40322;SDS011;26030;51.164;17.100;2023-06-22T09:28:22;6.00;;;5.40;;
40322;SDS011;26030;51.164;17.100;2023-06-22T09:33:26;5.90;;;5.50;;
40322;SDS011;26030;51.164;17.100;2023-06-22T09:38:30;6.90;;;6.10;;
40322;SDS011;26030;51.164;17.100;2023-06-22T09:43:34;6.10;;;5.60;;
40322;SDS011;26030;51.164;17.100;2023-06-22T09:48:41;6.10;;;5.50;;
40322;SDS011;26030;51.164;17.100;2023-06-22T09:53:46;6.40;;;5.90;;
40322;SDS011;26030;51.164;17.100;2023-06-22T09:58:50;6.00;;;5.30;;
40322;SDS011;26030;51.164;17.100;2023-06-22T10:03:58;5.80;;;5.40;;
40322;SDS011;26030;51.164;17.100;2023-06-22T10:09:02;5.80;;;5.30;;
40322;SDS011;26030;51.164;17.100;2023-06-22T10:14:06;6.20;;;5.60;;
40322;SDS011;26030;51.164;17.100;2023-06-22T10:19:10;6.60;;;6.10;;
40322;SDS011;26030;51.164;17.100;2023-06-22T10:24:15;6.20;;;5.80;;
40322;SDS011;26030;51.164;17.100;2023-06-22T10:29:20;5.80;;;5.40;;
40322;SDS011;26030;51.164;17.100;2023-06-22T10:34:24;6.90;;;6.40;;
40322;SDS011;26030;51.164;17.100;2023-06-22T10:39:28;6.20;;;5.80;;
40322;SDS011;26030;51.164;17.100;2023-06-22T10:44:32;6.90;;;6.30;;
40322;SDS011;26030;51.164;17.100;2023-06-22T10:49:37;6.90;;;6.30;;
40322;SDS011;26030;51.164;17.100;2023-06-22T10:54:42;6.70;;;6.20;;
40322;SDS011;26030;51.164;17.100;2023-06-22T10:59:46;5.90;;;5.40;;
40322;SDS011;26030;51.164;17.100;2023-06-22T11:04:50;6.70;;;6.20;;
40322;SDS011;26030;51.164;17.100;2023-06-22T11:09:54;6.90;;;6.20;;
40322;SDS011;26030;51.164;17.100;2023-06-22T11:14:58;8.00;;;7.00;;
40322;SDS011;26030;51.164;17.100;2023-06-22T11:20:03;6.10;;;5.60;;
40322;SDS011;26030;51.164;17.100;2023-06-22T11:25:15;6.20;;;5.70;;
40322;SDS011;26030;51.164;17.100;2023-06-22T11:30:19;6.00;;;5.60;;
40322;SDS011;26030;51.164;17.100;2023-06-22T11:35:23;7.00;;;6.20;;
40322;SDS011;26030;51.164;17.100;2023-06-22T11:40:28;6.00;;;5.40;;
40322;SDS011;26030;51.164;17.100;2023-06-22T11:45:32;7.20;;;5.90;;
40322;SDS011;26030;51.164;17.100;2023-06-22T11:50:36;6.20;;;5.80;;
40322;SDS011;26030;51.164;17.100;2023-06-22T11:55:40;6.60;;;6.10;;
40322;SDS011;26030;51.164;17.100;2023-06-22T12:00:45;6.00;;;5.60;;
40322;SDS011;26030;51.164;17.100;2023-06-22T12:05:54;6.00;;;5.50;;
40322;SDS011;26030;51.164;17.100;2023-06-22T12:10:59;6.60;;;6.00;;
40322;SDS011;26030;51.164;17.100;2023-06-22T12:16:03;6.30;;;5.90;;
40322;SDS011;26030;51.164;17.100;2023-06-22T12:21:07;6.10;;;5.60;;
40322;SDS011;26030;51.164;17.100;2023-06-22T12:26:12;6.10;;;5.70;;
40322;SDS011;26030;51.164;17.100;2023-06-22T12:31:18;6.30;;;5.90;;
40322;SDS011;26030;51.164;17.100;2023-06-22T12:36:27;6.30;;;5.90;;
40322;SDS011;26030;51.164;17.100;2023-06-22T12:41:38;6.40;;;5.90;;
40322;SDS011;26030;51.164;17.100;2023-06-22T12:46:49;6.00;;;5.50;;
40322;SDS011;26030;51.164;17.100;2023-06-22T12:52:03;6.00;;;5.60;;
40322;SDS011;26030;51.164;17.100;2023-06-22T12:57:35;6.00;;;5.60;;
40322;SDS011;26030;51.164;17.100;2023-06-22T13:03:47;6.50;;;6.00;;
40322;SDS011;26030;51.164;17.100;2023-06-22T13:08:58;5.90;;;5.40;;
40322;SDS011;26030;51.164;17.100;2023-06-22T13:14:09;6.10;;;5.60;;
40322;SDS011;26030;51.164;17.100;2023-06-22T13:19:13;6.10;;;5.70;;
40322;SDS011;26030;51.164;17.100;2023-06-22T13:24:18;6.50;;;5.70;;
40322;SDS011;26030;51.164;17.100;2023-06-22T13:29:22;6.30;;;5.80;;
40322;SDS011;26030;51.164;17.100;2023-06-22T13:34:26;6.10;;;5.60;;
40322;SDS011;26030;51.164;17.100;2023-06-22T13:39:30;6.10;;;5.50;;
40322;SDS011;26030;51.164;17.100;2023-06-22T13:44:34;6.80;;;6.30;;
40322;SDS011;26030;51.164;17.100;2023-06-22T13:49:38;6.00;;;5.70;;
40322;SDS011;26030;51.164;17.100;2023-06-22T13:54:43;11.90;;;5.40;;
40322;SDS011;26030;51.164;17.100;2023-06-22T13:59:47;6.00;;;5.60;;
40322;SDS011;26030;51.164;17.100;2023-06-22T14:04:51;6.00;;;5.60;;
40322;SDS011;26030;51.164;17.100;2023-06-22T14:09:56;6.30;;;5.60;;
40322;SDS011;26030;51.164;17.100;2023-06-22T14:15:01;6.40;;;5.90;;
40322;SDS011;26030;51.164;17.100;2023-06-22T14:20:06;5.90;;;5.40;;
40322;SDS011;26030;51.164;17.100;2023-06-22T14:25:12;6.30;;;5.90;;
40322;SDS011;26030;51.164;17.100;2023-06-22T14:30:16;6.00;;;5.50;;
40322;SDS011;26030;51.164;17.100;2023-06-22T14:35:20;5.60;;;5.20;;
40322;SDS011;26030;51.164;17.100;2023-06-22T14:40:25;6.10;;;5.70;;
40322;SDS011;26030;51.164;17.100;2023-06-22T14:45:29;5.60;;;5.20;;
40322;SDS011;26030;51.164;17.100;2023-06-22T14:50:34;6.10;;;5.20;;
40322;SDS011;26030;51.164;17.100;2023-06-22T14:55:38;5.70;;;4.80;;
40322;SDS011;26030;51.164;17.100;2023-06-22T15:00:42;5.50;;;5.00;;
40322;SDS011;26030;51.164;17.100;2023-06-22T15:05:46;6.30;;;5.00;;
40322;SDS011;26030;51.164;17.100;2023-06-22T15:10:51;5.50;;;5.10;;
40322;SDS011;26030;51.164;17.100;2023-06-22T15:15:55;5.70;;;5.20;;
40322;SDS011;26030;51.164;17.100;2023-06-22T15:21:00;5.30;;;4.90;;
40322;SDS011;26030;51.164;17.100;2023-06-22T15:26:05;5.30;;;4.90;;
40322;SDS011;26030;51.164;17.100;2023-06-22T15:31:09;5.10;;;4.80;;
40322;SDS011;26030;51.164;17.100;2023-06-22T15:36:13;5.20;;;4.90;;
40322;SDS011;26030;51.164;17.100;2023-06-22T15:41:17;5.50;;;4.90;;
40322;SDS011;26030;51.164;17.100;2023-06-22T15:46:22;8.30;;;4.90;;
40322;SDS011;26030;51.164;17.100;2023-06-22T15:51:26;6.40;;;5.30;;
40322;SDS011;26030;51.164;17.100;2023-06-22T15:56:32;4.70;;;4.30;;
40322;SDS011;26030;51.164;17.100;2023-06-22T16:01:36;10.40;;;4.90;;
40322;SDS011;26030;51.164;17.100;2023-06-22T16:06:41;7.10;;;4.60;;
40322;SDS011;26030;51.164;17.100;2023-06-22T16:11:45;5.50;;;5.10;;
40322;SDS011;26030;51.164;17.100;2023-06-22T16:16:51;5.20;;;4.60;;
40322;SDS011;26030;51.164;17.100;2023-06-22T16:21:56;4.80;;;4.20;;
40322;SDS011;26030;51.164;17.100;2023-06-22T16:27:00;6.10;;;4.90;;
40322;SDS011;26030;51.164;17.100;2023-06-22T16:32:08;6.50;;;4.60;;
40322;SDS011;26030;51.164;17.100;2023-06-22T16:37:12;5.20;;;4.50;;
40322;SDS011;26030;51.164;17.100;2023-06-22T16:42:17;5.20;;;4.70;;
40322;SDS011;26030;51.164;17.100;2023-06-22T16:47:21;7.30;;;5.20;;
40322;SDS011;26030;51.164;17.100;2023-06-22T16:52:25;7.30;;;4.90;;
40322;SDS011;26030;51.164;17.100;2023-06-22T16:57:29;6.90;;;5.40;;
40322;SDS011;26030;51.164;17.100;2023-06-22T17:02:35;10.30;;;5.40;;
40322;SDS011;26030;51.164;17.100;2023-06-22T17:07:53;7.20;;;5.70;;
40322;SDS011;26030;51.164;17.100;2023-06-22T17:12:57;14.70;;;8.40;;
40322;SDS011;26030;51.164;17.100;2023-06-22T17:18:05;13.80;;;7.80;;
40322;SDS011;26030;51.164;17.100;2023-06-22T17:23:10;9.40;;;7.10;;
40322;SDS011;26030;51.164;17.100;2023-06-22T17:28:14;12.90;;;7.50;;
40322;SDS011;26030;51.164;17.100;2023-06-22T17:33:19;10.50;;;7.30;;
40322;SDS011;26030;51.164;17.100;2023-06-22T17:38:25;10.60;;;7.50;;
40322;SDS011;26030;51.164;17.100;2023-06-22T17:43:30;11.70;;;6.90;;
40322;SDS011;26030;51.164;17.100;2023-06-22T17:48:34;11.10;;;7.60;;
40322;SDS011;26030;51.164;17.100;2023-06-22T17:53:39;10.40;;;7.40;;
40322;SDS011;26030;51.164;17.100;2023-06-22T17:58:53;9.40;;;7.90;;
40322;SDS011;26030;51.164;17.100;2023-06-22T18:03:58;12.00;;;7.50;;
40322;SDS011;26030;51.164;17.100;2023-06-22T18:09:04;10.80;;;6.60;;
40322;SDS011;26030;51.164;17.100;2023-06-22T18:14:09;12.90;;;6.30;;
40322;SDS011;26030;51.164;17.100;2023-06-22T18:19:14;7.50;;;6.10;;
40322;SDS011;26030;51.164;17.100;2023-06-22T18:24:19;11.30;;;6.20;;
40322;SDS011;26030;51.164;17.100;2023-06-22T18:29:24;7.30;;;5.70;;
40322;SDS011;26030;51.164;17.100;2023-06-22T18:34:29;11.10;;;5.20;;
40322;SDS011;26030;51.164;17.100;2023-06-22T18:39:36;7.40;;;5.90;;
40322;SDS011;26030;51.164;17.100;2023-06-22T18:44:42;9.30;;;5.40;;
40322;SDS011;26030;51.164;17.100;2023-06-22T18:49:47;6.00;;;5.40;;
40322;SDS011;26030;51.164;17.100;2023-06-22T18:54:52;9.40;;;7.00;;
40322;SDS011;26030;51.164;17.100;2023-06-22T19:00:06;11.50;;;6.50;;
40322;SDS011;26030;51.164;17.100;2023-06-22T19:10:29;10.50;;;5.10;;
40322;SDS011;26030;51.164;17.100;2023-06-22T19:15:36;6.70;;;5.50;;
40322;SDS011;26030;51.164;17.100;2023-06-22T19:20:40;6.00;;;5.30;;
40322;SDS011;26030;51.164;17.100;2023-06-22T19:25:45;10.50;;;5.70;;
40322;SDS011;26030;51.164;17.100;2023-06-22T19:30:51;6.40;;;5.50;;
40322;SDS011;26030;51.164;17.100;2023-06-22T19:36:00;18.50;;;5.50;;
40322;SDS011;26030;51.164;17.100;2023-06-22T19:41:09;9.00;;;5.30;;
40322;SDS011;26030;51.164;17.100;2023-06-22T19:46:14;12.20;;;4.60;;
40322;SDS011;26030;51.164;17.100;2023-06-22T19:51:18;9.80;;;5.10;;
40322;SDS011;26030;51.164;17.100;2023-06-22T19:56:23;12.10;;;5.40;;
40322;SDS011;26030;51.164;17.100;2023-06-22T20:01:28;9.00;;;5.00;;
40322;SDS011;26030;51.164;17.100;2023-06-22T20:06:32;8.50;;;5.20;;
40322;SDS011;26030;51.164;17.100;2023-06-22T20:11:38;7.90;;;4.50;;
40322;SDS011;26030;51.164;17.100;2023-06-22T20:16:47;5.20;;;4.20;;
40322;SDS011;26030;51.164;17.100;2023-06-22T20:21:51;5.00;;;4.10;;
40322;SDS011;26030;51.164;17.100;2023-06-22T20:26:56;5.90;;;3.70;;
40322;SDS011;26030;51.164;17.100;2023-06-22T20:32:08;4.70;;;4.00;;
40322;SDS011;26030;51.164;17.100;2023-06-22T20:37:13;25.90;;;4.60;;
40322;SDS011;26030;51.164;17.100;2023-06-22T20:42:18;6.90;;;4.70;;
40322;SDS011;26030;51.164;17.100;2023-06-22T20:47:22;5.10;;;4.10;;
40322;SDS011;26030;51.164;17.100;2023-06-22T20:52:28;10.70;;;4.60;;
40322;SDS011;26030;51.164;17.100;2023-06-22T20:57:34;4.40;;;3.90;;
40322;SDS011;26030;51.164;17.100;2023-06-22T21:02:40;9.00;;;4.00;;
40322;SDS011;26030;51.164;17.100;2023-06-22T21:07:45;7.20;;;4.40;;
40322;SDS011;26030;51.164;17.100;2023-06-22T21:12:51;3.90;;;3.40;;
40322;SDS011;26030;51.164;17.100;2023-06-22T21:17:58;4.40;;;4.00;;
40322;SDS011;26030;51.164;17.100;2023-06-22T21:23:02;8.60;;;5.10;;
40322;SDS011;26030;51.164;17.100;2023-06-22T21:28:07;6.60;;;4.70;;
40322;SDS011;26030;51.164;17.100;2023-06-22T21:33:12;10.60;;;4.60;;
40322;SDS011;26030;51.164;17.100;2023-06-22T21:38:17;8.30;;;4.90;;
40322;SDS011;26030;51.164;17.100;2023-06-22T21:43:21;7.70;;;4.40;;
40322;SDS011;26030;51.164;17.100;2023-06-22T21:48:25;9.40;;;4.70;;
40322;SDS011;26030;51.164;17.100;2023-06-22T21:53:29;8.50;;;4.90;;
40322;SDS011;26030;51.164;17.100;2023-06-22T21:58:33;7.80;;;4.50;;
40322;SDS011;26030;51.164;17.100;2023-06-22T22:03:37;8.50;;;4.60;;
40322;SDS011;26030;51.164;17.100;2023-06-22T22:08:43;5.90;;;4.80;;
40322;SDS011;26030;51.164;17.100;2023-06-22T22:13:47;5.90;;;4.40;;
40322;SDS011;26030;51.164;17.100;2023-06-22T22:18:52;6.30;;;4.00;;
40322;SDS011;26030;51.164;17.100;2023-06-22T22:23:57;6.90;;;4.50;;
40322;SDS011;26030;51.164;17.100;2023-06-22T22:29:03;4.60;;;4.20;;
40322;SDS011;26030;51.164;17.100;2023-06-22T22:34:08;6.80;;;4.40;;
40322;SDS011;26030;51.164;17.100;2023-06-22T22:39:35;4.60;;;3.90;;
40322;SDS011;26030;51.164;17.100;2023-06-22T22:44:43;6.10;;;4.10;;
40322;SDS011;26030;51.164;17.100;2023-06-22T22:49:50;5.40;;;4.10;;
40322;SDS011;26030;51.164;17.100;2023-06-22T22:54:56;6.10;;;4.50;;
40322;SDS011;26030;51.164;17.100;2023-06-22T23:00:02;4.40;;;4.00;;
40322;SDS011;26030;51.164;17.100;2023-06-22T23:05:08;6.70;;;4.10;;
40322;SDS011;26030;51.164;17.100;2023-06-22T23:10:14;4.50;;;4.10;;
40322;SDS011;26030;51.164;17.100;2023-06-22T23:15:18;4.90;;;4.40;;
40322;SDS011;26030;51.164;17.100;2023-06-22T23:20:22;5.20;;;3.80;;
40322;SDS011;26030;51.164;17.100;2023-06-22T23:25:27;5.50;;;4.30;;
40322;SDS011;26030;51.164;17.100;2023-06-22T23:30:38;4.80;;;4.40;;
40322;SDS011;26030;51.164;17.100;2023-06-22T23:35:42;4.10;;;3.60;;
40322;SDS011;26030;51.164;17.100;2023-06-22T23:40:48;4.30;;;3.70;;
40322;SDS011;26030;51.164;17.100;2023-06-22T23:45:52;4.20;;;3.90;;
40322;SDS011;26030;51.164;17.100;2023-06-22T23:50:56;4.40;;;4.00;;
40322;SDS011;26030;51.164;17.100;2023-06-22T23:56:03;6.50;;;4.00;;
